This is the latest recevied weather packets stored in our database for station/object DB0ASF-4. If no packets are shown the sender has not sent any weather packets the latest 10 day(s).
| Time | Temp. | Humidity | Pressure | Rain* | Wind** | Luminosity | Snow |
|---|---|---|---|---|---|---|---|
| 1777995558 | 16.11° C | 80% | 1012.2 hPa | 0.51 mm | - | - | - |
| 1777994958 | 16.11° C | 79% | 1012 hPa | 0.51 mm | - | - | - |
| 1777994358 | 16.11° C | 79% | 1012.2 hPa | 1.02 mm | - | - | - |
| 1777993758 | 16.11° C | 79% | 1012.2 hPa | 1.02 mm | - | - | - |
| 1777993158 | 16.11° C | 78% | 1012.2 hPa | 1.02 mm | - | - | - |
| 1777992558 | 16.11° C | 77% | 1012.2 hPa | 2.03 mm | - | - | - |
| 1777991958 | 16.11° C | 75% | 1012.2 hPa | 1.52 mm | - | - | - |
| 1777991358 | 16.67° C | 73% | 1012.2 hPa | 1.52 mm | - | - | - |
| 1777990758 | 17.22° C | 70% | 1012.4 hPa | 1.02 mm | - | - | - |
| 1777989558 | 18.89° C | 62% | 1012 hPa | 1.02 mm | - | - | - |
| 1777988958 | 20.56° C | 56% | 1012 hPa | 0 mm | - | - | - |
| 1777988358 | 21.67° C | 52% | 1011.9 hPa | 0 mm | - | - | - |
| 1777987758 | 22.78° C | 51% | 1011.9 hPa | 0 mm | - | - | - |
| 1777987158 | 22.78° C | 49% | 1011.9 hPa | 0 mm | - | - | - |
| 1777986558 | 22.78° C | 49% | 1011.9 hPa | 0 mm | - | - | - |
| 1777985958 | 23.33° C | 47% | 1012 hPa | 0 mm | - | - | - |
| 1777985358 | 23.33° C | 47% | 1012.2 hPa | 0 mm | - | - | - |
| 1777984758 | 23.89° C | 45% | 1012 hPa | 0 mm | - | - | - |
| 1777984158 | 24.44° C | 46% | 1012.2 hPa | 0 mm | - | - | - |
| 1777983558 | 24.44° C | 46% | 1012.4 hPa | 0 mm | - | - | - |
| 1777982958 | 24.44° C | 47% | 1012.4 hPa | 0 mm | - | - | - |
| 1777982358 | 23.89° C | 49% | 1012.4 hPa | 0 mm | - | - | - |
| 1777981758 | 23.89° C | 49% | 1012.5 hPa | 0 mm | - | - | - |
| 1777981158 | 23.89° C | 48% | 1012.5 hPa | 0 mm | - | - | - |
| 1777980558 | 23.89° C | 49% | 1012.5 hPa | 0 mm | - | - | - |
* Rain latest hour (hover to see other rain measurements)
** Current wind speed in m/s (hover to see current wind gust speed)